Latest Weather Observations for Lismore Airport

IDN60801

Issued at 8:32 pm EST Monday 27 April 2015 (issued every 30 minutes, with the page automatically refreshed every 10 minutes)

About weather observations | Map of weather stations | Latest weather observations for NSW | Other Formats
Station Details ID: 058214 Name: LISMORE AIRPORT AWS Lat: -28.83 Lon: 153.26 Height: 9.21 m
Data from the previous 72 hours. | See also: Recent months for locations in New South Wales
Date/Time
EST
Temp
°C
App
Temp
°C
Dew
Point
Rel
Hum
%
Delta-T
°C
Wind Press
QNH
hPa
Press
MSL
hPa
Rain
since 9 am
mm
Dir
 
Spd
km/h
Gust
km/h
Spd
kts
Gust
kts
27/08:30pm 12.8 11.5 12.6 99 0.1 N 11 13 6 7 1019.7 1019.7 0.0
27/08:00pm 12.1 11.0 11.9 99 0.1 N 9 11 5 6 1019.5 1019.5 0.0
27/07:30pm 11.9 12.4 11.7 99 0.1 CALM 0 0 0 0 1019.0 1019.0 0.0
27/07:00pm 13.6 14.3 12.2 91 0.8 CALM 0 0 0 0 1018.6 1018.6 0.0
27/06:30pm 14.1 14.7 11.8 86 1.2 CALM 0 0 0 0 1018.2 1018.2 0.0
27/06:00pm 15.1 14.4 9.9 71 2.7 SW 4 7 2 4 1017.8 1017.8 0.0
27/05:30pm 17.8 17.0 10.9 64 3.7 SE 6 9 3 5 1017.4 1017.4 0.0
27/05:00pm 19.3 17.4 10.6 57 4.7 SE 11 15 6 8 1017.1 1017.1 0.0
27/04:30pm 20.4 17.7 10.2 52 5.5 SE 15 20 8 11 1016.8 1016.8 0.0
27/04:00pm 21.6 19.4 10.7 50 6.0 SE 13 19 7 10 1016.5 1016.5 0.0
27/03:30pm 22.4 20.1 10.5 47 6.5 ESE 13 20 7 11 1016.4 1016.4 0.0
27/03:00pm 22.8 20.9 8.9 41 7.4 SSE 9 13 5 7 1016.2 1016.2 0.0
27/02:30pm 23.2 21.6 8.9 40 7.7 SE 7 13 4 7 1016.3 1016.3 0.0
27/02:00pm 23.4 21.4 8.7 39 7.8 E 9 15 5 8 1016.2 1016.2 0.0
27/01:30pm 22.7 20.1 9.5 43 7.1 SE 13 19 7 10 1016.3 1016.3 0.0
27/01:00pm 23.0 21.4 10.1 44 7.0 SSE 9 20 5 11 1016.5 1016.5 0.0
27/12:30pm 22.4 20.5 9.2 43 7.1 SE 9 17 5 9 1016.8 1016.8 0.0
27/12:00pm 22.3 19.6 8.8 42 7.2 SSE 13 19 7 10 1017.2 1017.2 0.0
27/11:30am 22.1 19.1 7.9 40 7.4 SSE 13 26 7 14 1017.6 1017.6 0.0
27/11:00am 21.7 17.7 8.2 42 7.1 SSE 19 32 10 17 1018.0 1018.0 0.0
27/10:30am 21.9 19.5 8.8 43 6.9 S 11 24 6 13 1018.3 1018.3 0.0
27/10:00am 20.5 18.0 8.2 45 6.4 SW 11 17 6 9 1018.3 1018.3 0.0
27/09:30am 20.0 18.0 8.7 48 5.9 SW 9 13 5 7 1018.4 1018.4 0.0
27/09:00am 17.9 16.3 11.7 67 3.4 N 11 13 6 7 1018.3 1018.3 0.0
27/08:30am 15.9 14.4 11.9 77 2.2 N 11 17 6 9 1018.1 1018.1 0.0
27/08:00am 14.0 12.1 11.9 87 1.1 N 13 17 7 9 1017.7 1017.7 0.0
27/07:30am 12.1 9.9 10.8 92 0.7 N 13 17 7 9 1017.3 1017.3 0.0
27/07:00am 10.9 8.1 10.0 94 0.5 N 15 19 8 10 1017.2 1017.2 0.0
27/06:30am 9.3 8.7 9.0 98 0.1 NNW 2 9 1 5 1016.7 1016.7 0.0
27/06:00am 9.7 7.6 9.6 99 0.0 NNE 11 13 6 7 1016.4 1016.4 0.0
27/05:30am 9.7 7.8 8.9 95 0.4 N 9 15 5 8 1016.1 1016.1 0.0
27/05:00am 10.5 7.5 9.4 93 0.5 N 15 20 8 11 1015.6 1015.6 0.0
27/04:30am 10.6 8.0 9.4 92 0.6 NNW 13 19 7 10 1015.2 1015.2 0.0
27/04:00am 9.5 8.0 8.4 93 0.5 N 6 9 3 5 1015.0 1015.0 0.0
27/03:30am 10.7 9.1 8.8 88 0.9 NNE 7 9 4 5 1015.0 1015.0 0.0
27/03:00am 10.8 8.9 8.9 88 0.9 NNE 9 11 5 6 1015.0 1015.0 0.0
27/02:30am 11.7 10.4 7.6 76 2.0 NNW 4 9 2 5 1015.0 1015.0 0.0
27/02:00am 12.3 10.0 7.4 72 2.4 N 9 11 5 6 1015.0 1015.0 0.0
27/01:30am 13.6 12.6 7.2 65 3.1 NW 2 9 1 5 1015.0 1015.0 0.0
27/01:00am 13.0 10.6 7.2 68 2.8 N 9 13 5 7 1015.3 1015.3 0.0
27/12:30am 12.2 9.9 7.5 73 2.3 ENE 9 11 5 6 1015.3 1015.3 0.0
27/12:00am 11.7 9.8 7.6 76 2.0 NNE 7 11 4 6 1015.3 1015.3 0.0
 
Date/Time
EST
Temp
°C
App
Temp
°C
Dew
Point
Rel
Hum
%
Delta-T
°C
Wind Press
QNH
hPa
Press
MSL
hPa
Rain
since 9 am
mm
Dir
 
Spd
km/h
Gust
km/h
Spd
kts
Gust
kts
26/11:30pm 13.1 11.1 6.9 66 3.0 NNE 7 11 4 6 1015.6 1015.6 0.0
26/11:00pm 14.9 10.9 6.7 58 4.0 NW 17 24 9 13 1015.6 1015.6 0.0
26/10:30pm 13.6 12.2 7.4 66 3.0 NE 4 13 2 7 1015.5 1015.5 0.0
26/10:00pm 15.0 11.8 6.8 58 4.0 WNW 13 17 7 9 1015.3 1015.3 0.0
26/09:30pm 15.0 11.9 7.1 59 3.9 WNW 13 19 7 10 1015.4 1015.4 0.0
26/09:00pm 15.2 12.0 6.7 57 4.1 WNW 13 20 7 11 1015.3 1015.3 0.0
26/08:30pm 14.9 11.3 6.7 58 4.0 NW 15 19 8 10 1015.1 1015.1 0.0
26/08:00pm 15.9 12.0 6.9 55 4.4 W 17 22 9 12 1014.7 1014.7 0.0
26/07:30pm 14.4 11.6 7.0 61 3.6 NW 11 17 6 9 1014.3 1014.3 0.0
26/07:00pm 14.5 11.0 7.3 62 3.5 N 15 19 8 10 1013.6 1013.6 0.0
26/06:30pm 17.5 13.1 6.7 49 5.4 WNW 19 26 10 14 1013.0 1013.0 0.0
26/06:00pm 17.4 13.0 6.6 49 5.3 WNW 19 30 10 16 1012.4 1012.4 0.0
26/05:30pm 17.7 13.3 6.6 48 5.5 W 19 24 10 13 1012.0 1012.0 0.0
26/05:00pm 19.3 14.9 6.4 43 6.4 WNW 19 24 10 13 1011.5 1011.5 0.0
26/04:30pm 20.2 15.1 6.2 40 7.0 WNW 22 30 12 16 1011.0 1011.0 0.0
26/04:00pm 20.9 15.4 5.7 37 7.6 WNW 24 33 13 18 1011.0 1011.0 0.0
26/03:30pm 21.3 14.6 5.6 36 7.8 WNW 30 39 16 21 1010.4 1010.4 0.0
26/03:00pm 21.6 16.0 5.5 35 8.0 WNW 24 35 13 19 1010.1 1010.1 0.0
26/02:36pm 21.7 15.5 6.0 36 7.9 WNW 28 46 15 25 1009.9 1009.9 0.0
26/02:30pm 21.5 14.4 5.4 35 8.0 WNW 32 46 17 25 1009.8 1009.8 0.0
26/02:00pm 22.1 16.2 5.9 35 8.2 W 26 39 14 21 1009.6 1009.6 0.0
26/01:30pm 21.7 14.2 4.3 32 8.5 WNW 33 46 18 25 1009.2 1009.2 0.0
26/01:00pm 21.7 14.7 4.3 32 8.5 WNW 30 43 16 23 1009.3 1009.3 0.0
26/12:30pm 21.5 14.6 4.6 33 8.3 W 30 44 16 24 1009.5 1009.5 0.0
26/12:00pm 21.1 13.5 3.8 32 8.3 W 33 52 18 28 1009.8 1009.8 0.0
26/11:42am 21.1 12.5 4.6 34 8.0 W 39 57 21 31 1009.9 1009.9 0.0
26/11:30am 21.1 12.4 4.2 33 8.2 W 39 52 21 28 1009.8 1009.8 0.0
26/11:27am 21.2 13.2 3.9 32 8.3 W 35 52 19 28 1009.8 1009.8 0.0
26/11:01am 21.2 14.0 5.1 35 7.9 WNW 32 50 17 27 1010.1 1010.1 0.0
26/11:00am 21.4 14.1 5.3 35 8.0 WNW 33 50 18 27 1010.1 1010.1 0.0
26/10:30am 20.6 13.6 4.2 34 7.9 W 30 43 16 23 1010.3 1010.3 0.0
26/10:00am 20.2 13.4 5.1 37 7.4 WNW 30 44 16 24 1010.2 1010.2 0.0
26/09:30am 19.6 13.1 4.9 38 7.1 WNW 28 43 15 23 1010.5 1010.5 0.0
26/09:00am 18.8 11.5 4.6 39 6.8 WNW 32 46 17 25 1010.6 1010.6 0.0
26/08:30am 18.8 13.6 5.6 42 6.5 WNW 22 35 12 19 1010.8 1010.8 0.0
26/08:11am 18.1 11.7 5.3 43 6.2 W 28 46 15 25 1010.8 1010.8 0.0
26/08:00am 18.0 11.2 4.9 42 6.3 W 30 43 16 23 1010.8 1010.8 0.0
26/07:30am 17.6 10.5 5.5 45 5.9 W 32 44 17 24 1010.7 1010.7 0.0
26/07:20am 17.4 11.0 5.0 44 5.9 W 28 46 15 25 1010.6 1010.6 0.0
26/07:00am 17.1 10.4 5.4 46 5.6 W 30 46 16 25 1010.3 1010.3 0.0
26/06:55am 16.9 10.6 5.5 47 5.5 W 28 46 15 25 1010.2 1010.2 0.0
26/06:30am 13.4 9.9 7.2 66 3.0 NNW 15 19 8 10 1010.1 1010.1 0.0
26/06:00am 13.9 10.7 7.0 63 3.4 NNW 13 17 7 9 1009.8 1009.8 0.0
26/05:30am 15.3 11.6 6.1 54 4.4 NW 15 20 8 11 1009.5 1009.5 0.0
26/05:00am 15.2 11.1 7.7 61 3.7 NW 19 26 10 14 1009.0 1009.0 0.0
26/04:30am 16.3 12.1 7.3 55 4.5 NW 19 22 10 12 1008.7 1008.7 0.0
26/04:00am 16.8 12.5 7.7 55 4.6 WNW 20 26 11 14 1008.5 1008.5 0.0
26/03:30am 12.5 9.7 11.4 93 0.6 NW 17 20 9 11 1008.3 1008.3 0.0
26/03:00am 12.3 9.4 12.3 100 0.0 NNW 19 20 10 11 1008.0 1008.0 0.0
26/02:30am 11.7 9.8 11.7 100 0.0 NNW 13 15 7 8 1007.9 1007.9 0.0
26/02:00am 12.7 10.7 12.7 100 0.0 NNW 15 19 8 10 1008.1 1008.1 0.0
26/01:30am 13.4 11.6 13.2 99 0.1 NNW 15 19 8 10 1008.1 1008.1 0.0
26/01:00am 13.8 11.4 13.8 100 0.0 NNW 19 22 10 12 1008.2 1008.2 0.0
26/12:30am 13.9 12.7 13.9 100 0.0 NNW 13 17 7 9 1008.4 1008.4 0.0
26/12:00am 14.3 13.2 14.3 100 0.0 NNW 13 20 7 11 1008.4 1008.4 0.0
 
Date/Time
EST
Temp
°C
App
Temp
°C
Dew
Point
Rel
Hum
%
Delta-T
°C
Wind Press
QNH
hPa
Press
MSL
hPa
Rain
since 9 am
mm
Dir
 
Spd
km/h
Gust
km/h
Spd
kts
Gust
kts
25/11:30pm 13.8 13.3 13.8 100 0.0 NNE 9 13 5 7 1008.7 1008.7 0.0
25/11:00pm 14.6 13.9 14.4 99 0.1 NNE 11 15 6 8 1008.9 1008.9 0.0
25/10:30pm 15.0 15.5 15.0 100 0.0 NNE 6 11 3 6 1009.1 1009.1 0.0
25/10:00pm 14.9 13.3 14.9 100 0.0 N 17 20 9 11 1008.9 1008.9 0.0
25/09:30pm 15.4 13.5 15.2 99 0.1 N 19 20 10 11 1009.0 1009.0 0.0
25/09:00pm 16.2 14.9 15.9 98 0.2 NNW 17 20 9 11 1008.8 1008.8 0.0
25/08:30pm 16.0 15.6 15.2 95 0.5 N 11 17 6 9 1008.8 1008.8 0.0
25/08:00pm 16.4 15.6 15.1 92 0.8 N 13 17 7 9 1008.8 1008.8 0.0
25/07:30pm 16.9 15.9 14.5 86 1.4 N 13 17 7 9 1008.5 1008.5 0.0
25/07:00pm 18.4 17.1 13.7 74 2.7 N 13 15 7 8 1008.3 1008.3 0.0
25/06:30pm 18.7 17.4 13.6 72 2.9 N 13 17 7 9 1007.9 1007.9 0.0
25/06:00pm 20.2 19.0 12.9 63 4.1 N 11 13 6 7 1007.6 1007.6 0.0
25/05:30pm 22.4 20.5 12.9 55 5.4 NE 15 19 8 10 1007.2 1007.2 0.0
25/05:00pm 23.9 22.2 11.2 44 7.1 NNE 11 13 6 7 1007.1 1007.1 0.0
25/04:30pm 25.3 23.3 11.5 42 7.8 N 13 17 7 9 1006.9 1006.9 0.0
25/04:00pm 27.2 26.3 11.2 36 9.1 N 7 11 4 6 1006.8 1006.8 0.0
25/03:30pm 27.5 26.8 13.1 41 8.5 NNW 9 13 5 7 1006.7 1006.7 0.0
25/03:00pm 27.3 24.9 8.7 31 10.2 NNW 11 17 6 9 1006.8 1006.8 0.0
25/02:30pm 27.6 26.3 11.2 36 9.3 N 9 17 5 9 1007.0 1007.0 0.0
25/02:00pm 28.0 26.8 11.5 35 9.5 NW 9 13 5 7 1007.1 1007.1 0.0
25/01:30pm 27.6 24.8 6.9 27 11.0 W 11 17 6 9 1007.4 1007.4 0.0
25/01:00pm 27.6 24.6 9.4 32 10.1 WSW 15 22 8 12 1007.7 1007.7 0.0
25/12:30pm 26.5 24.9 10.2 36 9.1 N 9 15 5 8 1008.1 1008.1 0.0
25/12:00pm 27.2 26.0 11.7 38 8.9 WNW 9 17 5 9 1008.5 1008.5 0.0
25/11:30am 26.8 24.6 9.2 33 9.7 WNW 11 19 6 10 1009.0 1009.0 0.0
25/11:00am 26.3 24.9 10.9 38 8.7 NW 9 15 5 8 1009.3 1009.3 0.0
25/10:30am 25.3 23.9 12.2 44 7.5 NW 11 19 6 10 1009.8 1009.8 0.0
25/10:00am 23.4 23.8 16.2 64 4.4 N 9 13 5 7 1010.3 1010.3 0.0
25/09:30am 21.5 22.9 17.7 79 2.3 N 7 11 4 6 1010.6 1010.6 0.0
25/09:00am 19.5 20.6 18.8 96 0.4 NNW 11 15 6 8 1010.8 1010.8 0.0
25/08:30am 16.9 16.8 16.9 100 0.0 N 13 15 7 8 1010.6 1010.6 0.0
25/08:00am 15.6 15.0 15.6 100 0.0 N 13 15 7 8 1010.5 1010.5 0.0
25/07:30am 14.5 13.9 14.5 100 0.0 N 11 13 6 7 1010.4 1010.4 0.0
25/07:00am 13.1 12.4 13.1 100 0.0 NNE 9 11 5 6 1010.2 1010.2 0.0
25/06:30am 11.9 10.4 11.9 100 0.0 N 11 13 6 7 1009.9 1009.9 0.0
25/06:00am 11.9 10.0 11.9 100 0.0 N 13 15 7 8 1009.6 1009.6 0.0
25/05:30am 12.5 11.2 12.5 100 0.0 NNE 11 13 6 7 1009.3 1009.3 0.0
25/05:00am 13.0 11.5 13.0 100 0.0 N 13 17 7 9 1009.2 1009.2 0.0
25/04:30am 13.7 12.0 13.7 100 0.0 N 15 17 8 9 1008.9 1008.9 0.0
25/04:00am 13.3 11.9 13.3 100 0.0 N 13 15 7 8 1008.8 1008.8 0.0
25/03:30am 13.6 12.3 13.6 100 0.0 N 13 17 7 9 1008.8 1008.8 0.0
25/03:00am 14.5 13.5 14.5 100 0.0 N 13 17 7 9 1008.7 1008.7 0.0
25/02:30am 14.4 13.7 14.4 100 0.0 N 11 11 6 6 1008.8 1008.8 0.0
25/02:00am 14.8 14.6 14.8 100 0.0 N 9 13 5 7 1008.9 1008.9 0.0
25/01:30am 14.2 14.2 14.2 100 0.0 NNE 7 11 4 6 1009.2 1009.2 0.0
25/01:00am 14.2 14.2 14.2 100 0.0 NNE 7 9 4 5 1009.1 1009.1 0.0
25/12:30am 14.4 14.1 14.4 100 0.0 NNE 9 11 5 6 1009.2 1009.2 0.0
25/12:00am 14.7 14.9 14.7 100 0.0 NNE 7 9 4 5 1009.2 1009.2 0.0
 
Date/Time
EST
Temp
°C
App
Temp
°C
Dew
Point
Rel
Hum
%
Delta-T
°C
Wind Press
QNH
hPa
Press
MSL
hPa
Rain
since 9 am
mm
Dir
 
Spd
km/h
Gust
km/h
Spd
kts
Gust
kts
24/11:30pm 15.0 14.9 15.0 100 0.0 NNE 9 11 5 6 1009.3 1009.3 0.0
24/11:00pm 15.1 15.1 15.1 100 0.0 NNE 9 11 5 6 1009.3 1009.3 0.0
24/10:30pm 15.4 15.5 15.4 100 0.0 N 9 13 5 7 1009.3 1009.3 0.0
24/10:00pm 15.3 15.3 15.3 100 0.0 N 9 11 5 6 1009.4 1009.4 0.0
24/09:30pm 15.8 16.0 15.8 100 0.0 N 9 11 5 6 1009.5 1009.5 0.0
24/09:00pm 16.2 15.8 16.2 100 0.0 NNW 13 15 7 8 1009.4 1009.4 0.0

Other Formats:

Comma delimited format used in spreadsheet applications
http://www.bom.gov.au/fwo/IDN60801/IDN60801.94572.axf

JavaScript Object Notation format (JSON) in row-major order
http://www.bom.gov.au/fwo/IDN60801/IDN60801.94572.json